Terminal Aerodrome Forecast
Issued by NWS Binghamton, NY

Home | Current Version | Previous Version | Text Only | Print | Product List | Glossary On
Versions: 1 2 3 4 5 6 7 8 9 10 11 12 13 14 15
000
FTUS41 KBGM 301700
TAFSYR
TAF
KSYR 301728Z 3018/3118 19012KT P6SM SCT040 SCT100
     FM310800 19008KT P6SM SCT035 OVC100 PROB30 3108/3112 -SHRA
      OVC035
     FM311200 22010KT 4SM -SHRA OVC025=

USA.gov is the U.S. government's official web portal to all federal, state and local government web resources and services.